sensor_id;sensor_type;location;lat;lon;timestamp;temperature;humidity
1405;DHT22;697;51.114;6.542;2024-02-16T00:02:08;14.20;99.90
1405;DHT22;697;51.114;6.542;2024-02-16T00:04:35;14.20;99.90
1405;DHT22;697;51.114;6.542;2024-02-16T00:07:02;14.20;99.90
1405;DHT22;697;51.114;6.542;2024-02-16T00:09:30;14.20;99.90
1405;DHT22;697;51.114;6.542;2024-02-16T00:11:58;14.20;99.90
1405;DHT22;697;51.114;6.542;2024-02-16T00:14:25;14.20;99.90
1405;DHT22;697;51.114;6.542;2024-02-16T00:16:52;14.10;99.90
1405;DHT22;697;51.114;6.542;2024-02-16T00:19:19;14.20;99.90
1405;DHT22;697;51.114;6.542;2024-02-16T00:21:45;14.10;99.90
1405;DHT22;697;51.114;6.542;2024-02-16T00:24:12;14.20;99.90
1405;DHT22;697;51.114;6.542;2024-02-16T00:26:40;14.10;99.90
1405;DHT22;697;51.114;6.542;2024-02-16T00:29:08;14.10;99.90
1405;DHT22;697;51.114;6.542;2024-02-16T00:31:35;14.10;99.90
1405;DHT22;697;51.114;6.542;2024-02-16T00:34:02;14.20;99.90
1405;DHT22;697;51.114;6.542;2024-02-16T00:36:29;14.10;99.90
1405;DHT22;697;51.114;6.542;2024-02-16T00:38:56;14.20;99.90
1405;DHT22;697;51.114;6.542;2024-02-16T00:41:23;14.10;99.90
1405;DHT22;697;51.114;6.542;2024-02-16T00:43:51;14.10;99.90
1405;DHT22;697;51.114;6.542;2024-02-16T00:46:18;14.10;99.90
1405;DHT22;697;51.114;6.542;2024-02-16T00:48:45;14.10;99.90
1405;DHT22;697;51.114;6.542;2024-02-16T00:51:13;14.10;99.90
1405;DHT22;697;51.114;6.542;2024-02-16T00:53:40;14.10;99.90
1405;DHT22;697;51.114;6.542;2024-02-16T00:56:07;14.10;99.90
1405;DHT22;697;51.114;6.542;2024-02-16T00:58:34;14.10;99.90
1405;DHT22;697;51.114;6.542;2024-02-16T01:01:03;14.10;99.90
1405;DHT22;697;51.114;6.542;2024-02-16T01:03:30;14.10;99.90
1405;DHT22;697;51.114;6.542;2024-02-16T01:05:57;14.10;99.90
1405;DHT22;697;51.114;6.542;2024-02-16T01:08:23;14.10;99.90
1405;DHT22;697;51.114;6.542;2024-02-16T01:10:50;14.10;99.90
1405;DHT22;697;51.114;6.542;2024-02-16T01:13:17;14.10;99.90
1405;DHT22;697;51.114;6.542;2024-02-16T01:15:44;14.10;99.90
1405;DHT22;697;51.114;6.542;2024-02-16T01:18:12;14.10;99.90
1405;DHT22;697;51.114;6.542;2024-02-16T01:20:39;14.10;99.90
1405;DHT22;697;51.114;6.542;2024-02-16T01:23:06;14.10;99.90
1405;DHT22;697;51.114;6.542;2024-02-16T01:25:33;14.10;99.90
1405;DHT22;697;51.114;6.542;2024-02-16T01:27:59;14.10;99.90
1405;DHT22;697;51.114;6.542;2024-02-16T01:30:26;14.10;99.90
1405;DHT22;697;51.114;6.542;2024-02-16T01:32:53;14.10;99.90
1405;DHT22;697;51.114;6.542;2024-02-16T01:35:21;14.10;99.90
1405;DHT22;697;51.114;6.542;2024-02-16T01:37:49;14.10;99.90
1405;DHT22;697;51.114;6.542;2024-02-16T01:40:15;14.10;99.90
1405;DHT22;697;51.114;6.542;2024-02-16T01:42:43;14.10;99.90
1405;DHT22;697;51.114;6.542;2024-02-16T01:45:10;14.10;99.90
1405;DHT22;697;51.114;6.542;2024-02-16T01:47:38;14.10;99.90
1405;DHT22;697;51.114;6.542;2024-02-16T01:50:06;14.10;99.90
1405;DHT22;697;51.114;6.542;2024-02-16T01:52:35;14.00;99.90
1405;DHT22;697;51.114;6.542;2024-02-16T01:55:03;14.00;99.90
1405;DHT22;697;51.114;6.542;2024-02-16T01:57:31;14.00;99.90
1405;DHT22;697;51.114;6.542;2024-02-16T01:59:58;14.00;99.90
1405;DHT22;697;51.114;6.542;2024-02-16T02:02:25;14.00;99.90
1405;DHT22;697;51.114;6.542;2024-02-16T02:04:52;14.00;99.90
1405;DHT22;697;51.114;6.542;2024-02-16T02:07:18;14.00;99.90
1405;DHT22;697;51.114;6.542;2024-02-16T02:09:48;14.00;99.90
1405;DHT22;697;51.114;6.542;2024-02-16T02:12:16;13.90;99.90
1405;DHT22;697;51.114;6.542;2024-02-16T02:14:43;13.90;99.90
1405;DHT22;697;51.114;6.542;2024-02-16T02:17:12;13.90;99.90
1405;DHT22;697;51.114;6.542;2024-02-16T02:19:39;13.90;99.90
1405;DHT22;697;51.114;6.542;2024-02-16T02:22:12;13.90;99.90
1405;DHT22;697;51.114;6.542;2024-02-16T02:24:39;13.90;99.90
1405;DHT22;697;51.114;6.542;2024-02-16T02:27:06;13.80;99.90
1405;DHT22;697;51.114;6.542;2024-02-16T02:29:33;13.80;99.90
1405;DHT22;697;51.114;6.542;2024-02-16T02:32:00;13.80;99.90
1405;DHT22;697;51.114;6.542;2024-02-16T02:34:27;13.80;99.90
1405;DHT22;697;51.114;6.542;2024-02-16T02:36:53;13.80;99.90
1405;DHT22;697;51.114;6.542;2024-02-16T02:39:22;13.80;99.90
1405;DHT22;697;51.114;6.542;2024-02-16T02:41:48;13.80;99.90
1405;DHT22;697;51.114;6.542;2024-02-16T02:44:15;13.80;99.90
1405;DHT22;697;51.114;6.542;2024-02-16T02:46:42;13.80;99.90
1405;DHT22;697;51.114;6.542;2024-02-16T02:49:09;13.80;99.90
1405;DHT22;697;51.114;6.542;2024-02-16T02:51:35;13.80;99.90
1405;DHT22;697;51.114;6.542;2024-02-16T02:54:02;13.80;99.90
1405;DHT22;697;51.114;6.542;2024-02-16T02:56:31;13.80;99.90
1405;DHT22;697;51.114;6.542;2024-02-16T02:58:58;13.80;99.90
1405;DHT22;697;51.114;6.542;2024-02-16T03:01:24;13.80;99.90
1405;DHT22;697;51.114;6.542;2024-02-16T03:03:51;13.80;99.90
1405;DHT22;697;51.114;6.542;2024-02-16T03:06:18;13.70;99.90
1405;DHT22;697;51.114;6.542;2024-02-16T03:08:45;13.70;99.90
1405;DHT22;697;51.114;6.542;2024-02-16T03:11:12;13.70;99.90
1405;DHT22;697;51.114;6.542;2024-02-16T03:13:40;13.80;99.90
1405;DHT22;697;51.114;6.542;2024-02-16T03:16:07;13.80;99.90
1405;DHT22;697;51.114;6.542;2024-02-16T03:18:36;13.70;99.90
1405;DHT22;697;51.114;6.542;2024-02-16T03:21:03;13.70;99.90
1405;DHT22;697;51.114;6.542;2024-02-16T03:23:30;13.70;99.90
1405;DHT22;697;51.114;6.542;2024-02-16T03:25:57;13.70;99.90
1405;DHT22;697;51.114;6.542;2024-02-16T03:28:24;13.70;99.90
1405;DHT22;697;51.114;6.542;2024-02-16T03:30:52;13.80;99.90
1405;DHT22;697;51.114;6.542;2024-02-16T03:33:20;13.70;99.90
1405;DHT22;697;51.114;6.542;2024-02-16T03:35:47;13.70;99.90
1405;DHT22;697;51.114;6.542;2024-02-16T03:38:14;13.70;99.90
1405;DHT22;697;51.114;6.542;2024-02-16T03:40:40;13.70;99.90
1405;DHT22;697;51.114;6.542;2024-02-16T03:43:07;13.70;99.90
1405;DHT22;697;51.114;6.542;2024-02-16T03:45:34;13.70;99.90
1405;DHT22;697;51.114;6.542;2024-02-16T03:48:03;13.80;99.90
1405;DHT22;697;51.114;6.542;2024-02-16T03:50:29;13.80;99.90
1405;DHT22;697;51.114;6.542;2024-02-16T03:52:56;13.80;99.90
1405;DHT22;697;51.114;6.542;2024-02-16T03:55:25;13.80;99.90
1405;DHT22;697;51.114;6.542;2024-02-16T03:57:51;13.80;99.90
1405;DHT22;697;51.114;6.542;2024-02-16T04:00:18;13.80;99.90
1405;DHT22;697;51.114;6.542;2024-02-16T04:02:46;13.80;99.90
1405;DHT22;697;51.114;6.542;2024-02-16T04:05:14;13.80;99.90
1405;DHT22;697;51.114;6.542;2024-02-16T04:07:41;13.80;99.90
1405;DHT22;697;51.114;6.542;2024-02-16T04:10:08;13.80;99.90
1405;DHT22;697;51.114;6.542;2024-02-16T04:12:35;13.80;99.90
1405;DHT22;697;51.114;6.542;2024-02-16T04:15:03;13.80;99.90
1405;DHT22;697;51.114;6.542;2024-02-16T04:17:30;13.80;99.90
1405;DHT22;697;51.114;6.542;2024-02-16T04:19:57;13.80;99.90
1405;DHT22;697;51.114;6.542;2024-02-16T04:22:25;13.80;99.90
1405;DHT22;697;51.114;6.542;2024-02-16T04:24:51;13.80;99.90
1405;DHT22;697;51.114;6.542;2024-02-16T04:27:18;13.80;99.90
1405;DHT22;697;51.114;6.542;2024-02-16T04:29:45;13.80;99.90
1405;DHT22;697;51.114;6.542;2024-02-16T04:32:12;13.80;99.90
1405;DHT22;697;51.114;6.542;2024-02-16T04:34:39;13.90;99.90
1405;DHT22;697;51.114;6.542;2024-02-16T04:37:05;13.90;99.90
1405;DHT22;697;51.114;6.542;2024-02-16T04:39:33;13.80;99.90
1405;DHT22;697;51.114;6.542;2024-02-16T04:42:00;13.80;99.90
1405;DHT22;697;51.114;6.542;2024-02-16T04:44:28;13.80;99.90
1405;DHT22;697;51.114;6.542;2024-02-16T04:46:55;13.80;99.90
1405;DHT22;697;51.114;6.542;2024-02-16T04:49:22;13.80;99.90
1405;DHT22;697;51.114;6.542;2024-02-16T04:51:49;13.80;99.90
1405;DHT22;697;51.114;6.542;2024-02-16T04:54:15;13.80;99.90
1405;DHT22;697;51.114;6.542;2024-02-16T04:56:44;13.80;99.90
1405;DHT22;697;51.114;6.542;2024-02-16T04:59:10;13.80;99.90
1405;DHT22;697;51.114;6.542;2024-02-16T05:01:37;13.80;99.90
1405;DHT22;697;51.114;6.542;2024-02-16T05:04:04;13.80;99.90
1405;DHT22;697;51.114;6.542;2024-02-16T05:06:32;13.80;99.90
1405;DHT22;697;51.114;6.542;2024-02-16T05:08:59;13.80;99.90
1405;DHT22;697;51.114;6.542;2024-02-16T05:11:26;13.80;99.90
1405;DHT22;697;51.114;6.542;2024-02-16T05:13:56;13.80;99.90
1405;DHT22;697;51.114;6.542;2024-02-16T05:16:23;13.80;99.90
1405;DHT22;697;51.114;6.542;2024-02-16T05:18:50;13.80;99.90
1405;DHT22;697;51.114;6.542;2024-02-16T05:21:17;13.80;99.90
1405;DHT22;697;51.114;6.542;2024-02-16T05:23:44;13.80;99.90
1405;DHT22;697;51.114;6.542;2024-02-16T05:26:11;13.80;99.90
1405;DHT22;697;51.114;6.542;2024-02-16T05:28:37;13.80;99.90
1405;DHT22;697;51.114;6.542;2024-02-16T05:31:13;13.70;99.90
1405;DHT22;697;51.114;6.542;2024-02-16T05:33:41;13.70;99.90
1405;DHT22;697;51.114;6.542;2024-02-16T05:36:08;13.70;99.90
1405;DHT22;697;51.114;6.542;2024-02-16T05:38:35;13.80;99.90
1405;DHT22;697;51.114;6.542;2024-02-16T05:41:06;13.80;99.90
1405;DHT22;697;51.114;6.542;2024-02-16T05:43:33;13.80;99.90
1405;DHT22;697;51.114;6.542;2024-02-16T05:46:00;13.80;99.90
1405;DHT22;697;51.114;6.542;2024-02-16T05:48:28;13.80;99.90
1405;DHT22;697;51.114;6.542;2024-02-16T05:50:57;13.80;99.90
1405;DHT22;697;51.114;6.542;2024-02-16T05:53:26;13.80;99.90
1405;DHT22;697;51.114;6.542;2024-02-16T05:55:53;13.80;99.90
1405;DHT22;697;51.114;6.542;2024-02-16T05:58:20;13.90;99.90
1405;DHT22;697;51.114;6.542;2024-02-16T06:00:48;13.90;99.90
1405;DHT22;697;51.114;6.542;2024-02-16T06:03:15;13.90;99.90
1405;DHT22;697;51.114;6.542;2024-02-16T06:05:43;13.90;99.90
1405;DHT22;697;51.114;6.542;2024-02-16T06:08:11;13.90;99.90
1405;DHT22;697;51.114;6.542;2024-02-16T06:10:38;13.90;99.90
1405;DHT22;697;51.114;6.542;2024-02-16T06:13:06;13.90;99.90
1405;DHT22;697;51.114;6.542;2024-02-16T06:15:33;13.90;99.90
1405;DHT22;697;51.114;6.542;2024-02-16T06:18:00;14.00;99.90
1405;DHT22;697;51.114;6.542;2024-02-16T06:20:27;14.00;99.90
1405;DHT22;697;51.114;6.542;2024-02-16T06:22:56;14.00;99.90
1405;DHT22;697;51.114;6.542;2024-02-16T06:25:23;14.00;99.90
1405;DHT22;697;51.114;6.542;2024-02-16T06:27:50;14.00;99.90
1405;DHT22;697;51.114;6.542;2024-02-16T06:30:17;14.00;99.90
1405;DHT22;697;51.114;6.542;2024-02-16T06:32:44;13.90;99.90
1405;DHT22;697;51.114;6.542;2024-02-16T06:35:11;14.00;99.90
1405;DHT22;697;51.114;6.542;2024-02-16T06:37:38;14.00;99.90
1405;DHT22;697;51.114;6.542;2024-02-16T06:40:07;14.00;99.90
1405;DHT22;697;51.114;6.542;2024-02-16T06:42:35;14.00;99.90
1405;DHT22;697;51.114;6.542;2024-02-16T06:45:03;14.10;99.90
1405;DHT22;697;51.114;6.542;2024-02-16T06:47:30;14.10;99.90
1405;DHT22;697;51.114;6.542;2024-02-16T06:49:57;14.10;99.90
1405;DHT22;697;51.114;6.542;2024-02-16T06:52:24;14.10;99.90
1405;DHT22;697;51.114;6.542;2024-02-16T06:54:51;14.10;99.90
1405;DHT22;697;51.114;6.542;2024-02-16T06:57:20;14.10;99.90
1405;DHT22;697;51.114;6.542;2024-02-16T06:59:47;14.10;99.90
1405;DHT22;697;51.114;6.542;2024-02-16T07:02:14;14.10;99.90
1405;DHT22;697;51.114;6.542;2024-02-16T07:04:42;14.10;99.90
1405;DHT22;697;51.114;6.542;2024-02-16T07:07:11;14.10;99.90
1405;DHT22;697;51.114;6.542;2024-02-16T07:09:37;14.20;99.90
1405;DHT22;697;51.114;6.542;2024-02-16T07:12:05;14.20;99.90
1405;DHT22;697;51.114;6.542;2024-02-16T07:14:34;14.20;99.90
1405;DHT22;697;51.114;6.542;2024-02-16T07:17:01;14.20;99.90
1405;DHT22;697;51.114;6.542;2024-02-16T07:19:28;14.20;99.90
1405;DHT22;697;51.114;6.542;2024-02-16T07:21:54;14.20;99.90
1405;DHT22;697;51.114;6.542;2024-02-16T07:24:21;14.30;99.90
1405;DHT22;697;51.114;6.542;2024-02-16T07:26:48;14.30;99.90
1405;DHT22;697;51.114;6.542;2024-02-16T07:29:15;14.30;99.90
1405;DHT22;697;51.114;6.542;2024-02-16T07:31:43;14.30;99.90
1405;DHT22;697;51.114;6.542;2024-02-16T07:34:10;14.40;99.90
1405;DHT22;697;51.114;6.542;2024-02-16T07:36:37;14.40;99.90
1405;DHT22;697;51.114;6.542;2024-02-16T07:39:04;14.50;99.90
1405;DHT22;697;51.114;6.542;2024-02-16T07:41:31;14.50;99.90
1405;DHT22;697;51.114;6.542;2024-02-16T07:43:58;14.50;99.90
1405;DHT22;697;51.114;6.542;2024-02-16T07:46:25;14.50;99.90
1405;DHT22;697;51.114;6.542;2024-02-16T07:48:53;14.60;99.90
1405;DHT22;697;51.114;6.542;2024-02-16T07:51:19;14.60;99.90
1405;DHT22;697;51.114;6.542;2024-02-16T07:53:46;14.60;99.90
1405;DHT22;697;51.114;6.542;2024-02-16T07:56:14;14.60;99.90
1405;DHT22;697;51.114;6.542;2024-02-16T07:58:42;14.60;99.90
1405;DHT22;697;51.114;6.542;2024-02-16T08:01:11;14.60;99.90
1405;DHT22;697;51.114;6.542;2024-02-16T08:03:40;14.70;99.90
1405;DHT22;697;51.114;6.542;2024-02-16T08:06:08;14.70;99.90
1405;DHT22;697;51.114;6.542;2024-02-16T08:08:35;14.70;99.90
1405;DHT22;697;51.114;6.542;2024-02-16T08:11:02;14.70;99.90
1405;DHT22;697;51.114;6.542;2024-02-16T08:13:29;14.80;99.90
1405;DHT22;697;51.114;6.542;2024-02-16T08:15:56;14.80;99.90
1405;DHT22;697;51.114;6.542;2024-02-16T08:18:23;14.90;99.90
1405;DHT22;697;51.114;6.542;2024-02-16T08:20:50;14.90;99.90
1405;DHT22;697;51.114;6.542;2024-02-16T08:23:18;15.00;99.90
1405;DHT22;697;51.114;6.542;2024-02-16T08:25:46;15.10;99.90
1405;DHT22;697;51.114;6.542;2024-02-16T08:28:12;15.20;99.90
1405;DHT22;697;51.114;6.542;2024-02-16T08:30:39;15.20;99.90
1405;DHT22;697;51.114;6.542;2024-02-16T08:33:09;15.30;99.90
1405;DHT22;697;51.114;6.542;2024-02-16T08:35:36;15.40;99.90
1405;DHT22;697;51.114;6.542;2024-02-16T08:38:03;15.50;99.90
1405;DHT22;697;51.114;6.542;2024-02-16T08:40:31;15.60;99.90
1405;DHT22;697;51.114;6.542;2024-02-16T08:42:58;15.60;99.90
1405;DHT22;697;51.114;6.542;2024-02-16T08:45:27;15.70;99.90
1405;DHT22;697;51.114;6.542;2024-02-16T08:47:53;15.70;99.90
1405;DHT22;697;51.114;6.542;2024-02-16T08:50:22;15.70;99.90
1405;DHT22;697;51.114;6.542;2024-02-16T08:52:49;15.70;99.90
1405;DHT22;697;51.114;6.542;2024-02-16T08:55:17;15.80;99.90
1405;DHT22;697;51.114;6.542;2024-02-16T08:57:45;15.80;99.90
1405;DHT22;697;51.114;6.542;2024-02-16T09:00:13;15.80;99.90
1405;DHT22;697;51.114;6.542;2024-02-16T09:02:42;15.80;99.90
1405;DHT22;697;51.114;6.542;2024-02-16T09:05:10;15.80;99.90
1405;DHT22;697;51.114;6.542;2024-02-16T09:07:37;15.90;99.90
1405;DHT22;697;51.114;6.542;2024-02-16T09:10:04;15.80;99.90
1405;DHT22;697;51.114;6.542;2024-02-16T09:12:31;15.80;99.90
1405;DHT22;697;51.114;6.542;2024-02-16T09:14:59;15.80;99.90
1405;DHT22;697;51.114;6.542;2024-02-16T09:17:26;15.80;99.90
1405;DHT22;697;51.114;6.542;2024-02-16T09:19:53;15.80;99.90
1405;DHT22;697;51.114;6.542;2024-02-16T09:22:20;15.80;99.90
1405;DHT22;697;51.114;6.542;2024-02-16T09:24:47;15.80;99.90
1405;DHT22;697;51.114;6.542;2024-02-16T09:27:13;15.90;99.90
1405;DHT22;697;51.114;6.542;2024-02-16T09:29:40;16.00;99.90
1405;DHT22;697;51.114;6.542;2024-02-16T09:32:09;16.00;99.90
1405;DHT22;697;51.114;6.542;2024-02-16T09:34:36;16.10;99.90
1405;DHT22;697;51.114;6.542;2024-02-16T09:37:03;16.20;99.90
1405;DHT22;697;51.114;6.542;2024-02-16T09:39:30;16.20;99.90
1405;DHT22;697;51.114;6.542;2024-02-16T09:41:57;16.20;99.90
1405;DHT22;697;51.114;6.542;2024-02-16T09:44:24;16.20;99.90
1405;DHT22;697;51.114;6.542;2024-02-16T09:46:53;16.20;99.90
1405;DHT22;697;51.114;6.542;2024-02-16T09:49:22;16.20;99.90
1405;DHT22;697;51.114;6.542;2024-02-16T09:51:49;16.20;99.90
1405;DHT22;697;51.114;6.542;2024-02-16T09:54:15;16.20;99.90
1405;DHT22;697;51.114;6.542;2024-02-16T09:56:42;16.20;99.90
1405;DHT22;697;51.114;6.542;2024-02-16T09:59:11;16.30;99.90
1405;DHT22;697;51.114;6.542;2024-02-16T10:01:37;16.30;99.90
1405;DHT22;697;51.114;6.542;2024-02-16T10:04:07;16.30;99.90
1405;DHT22;697;51.114;6.542;2024-02-16T10:06:47;16.30;99.90
1405;DHT22;697;51.114;6.542;2024-02-16T10:09:22;16.40;99.90
1405;DHT22;697;51.114;6.542;2024-02-16T10:11:49;16.40;99.90
1405;DHT22;697;51.114;6.542;2024-02-16T10:14:16;16.40;99.90
1405;DHT22;697;51.114;6.542;2024-02-16T10:16:44;16.40;99.90
1405;DHT22;697;51.114;6.542;2024-02-16T10:19:11;16.40;99.90
1405;DHT22;697;51.114;6.542;2024-02-16T10:21:38;16.50;99.90
1405;DHT22;697;51.114;6.542;2024-02-16T10:24:08;16.50;99.90
1405;DHT22;697;51.114;6.542;2024-02-16T10:26:35;16.50;99.90
1405;DHT22;697;51.114;6.542;2024-02-16T10:29:04;16.60;99.90
1405;DHT22;697;51.114;6.542;2024-02-16T10:31:32;16.60;99.90
1405;DHT22;697;51.114;6.542;2024-02-16T10:33:59;16.60;99.90
1405;DHT22;697;51.114;6.542;2024-02-16T10:36:27;16.60;99.90
1405;DHT22;697;51.114;6.542;2024-02-16T10:38:55;16.70;99.90
1405;DHT22;697;51.114;6.542;2024-02-16T10:41:27;16.60;99.90
1405;DHT22;697;51.114;6.542;2024-02-16T10:43:55;16.70;99.90
1405;DHT22;697;51.114;6.542;2024-02-16T10:46:23;16.70;99.90
1405;DHT22;697;51.114;6.542;2024-02-16T10:48:50;16.70;99.90
1405;DHT22;697;51.114;6.542;2024-02-16T10:51:21;16.70;99.90
1405;DHT22;697;51.114;6.542;2024-02-16T10:53:52;16.70;99.90
1405;DHT22;697;51.114;6.542;2024-02-16T10:56:32;16.70;99.90
1405;DHT22;697;51.114;6.542;2024-02-16T10:59:01;16.70;99.90
1405;DHT22;697;51.114;6.542;2024-02-16T11:01:31;16.80;99.90
1405;DHT22;697;51.114;6.542;2024-02-16T11:04:01;16.80;99.90
1405;DHT22;697;51.114;6.542;2024-02-16T11:06:28;16.90;99.90
1405;DHT22;697;51.114;6.542;2024-02-16T11:09:01;16.90;99.90
1405;DHT22;697;51.114;6.542;2024-02-16T11:11:34;16.90;99.90
1405;DHT22;697;51.114;6.542;2024-02-16T11:14:01;17.00;99.90
1405;DHT22;697;51.114;6.542;2024-02-16T11:16:29;17.00;99.90
1405;DHT22;697;51.114;6.542;2024-02-16T11:18:56;17.00;99.90
1405;DHT22;697;51.114;6.542;2024-02-16T11:21:23;17.00;99.90
1405;DHT22;697;51.114;6.542;2024-02-16T11:23:50;17.00;99.90
1405;DHT22;697;51.114;6.542;2024-02-16T11:26:17;16.90;99.90
1405;DHT22;697;51.114;6.542;2024-02-16T11:28:46;16.90;99.90
1405;DHT22;697;51.114;6.542;2024-02-16T11:31:13;16.80;99.90
1405;DHT22;697;51.114;6.542;2024-02-16T11:33:43;16.80;99.90
1405;DHT22;697;51.114;6.542;2024-02-16T11:36:11;16.80;99.90
1405;DHT22;697;51.114;6.542;2024-02-16T11:38:38;16.80;99.90
1405;DHT22;697;51.114;6.542;2024-02-16T11:41:06;16.70;99.90
1405;DHT22;697;51.114;6.542;2024-02-16T11:43:34;16.70;99.90
1405;DHT22;697;51.114;6.542;2024-02-16T11:46:12;16.60;99.90
1405;DHT22;697;51.114;6.542;2024-02-16T11:48:39;16.50;99.90
1405;DHT22;697;51.114;6.542;2024-02-16T11:51:06;16.50;99.90
1405;DHT22;697;51.114;6.542;2024-02-16T11:53:33;16.40;99.90
1405;DHT22;697;51.114;6.542;2024-02-16T11:56:00;16.40;99.90
1405;DHT22;697;51.114;6.542;2024-02-16T11:58:28;16.30;99.90
1405;DHT22;697;51.114;6.542;2024-02-16T12:00:56;16.30;99.90
1405;DHT22;697;51.114;6.542;2024-02-16T12:03:26;16.20;99.90
1405;DHT22;697;51.114;6.542;2024-02-16T12:05:54;16.20;99.90
1405;DHT22;697;51.114;6.542;2024-02-16T12:08:22;16.20;99.90
1405;DHT22;697;51.114;6.542;2024-02-16T12:10:50;16.10;99.90
1405;DHT22;697;51.114;6.542;2024-02-16T12:13:18;16.00;99.90
1405;DHT22;697;51.114;6.542;2024-02-16T12:15:45;16.00;99.90
1405;DHT22;697;51.114;6.542;2024-02-16T12:18:19;16.00;99.90
1405;DHT22;697;51.114;6.542;2024-02-16T12:20:58;16.00;99.90
1405;DHT22;697;51.114;6.542;2024-02-16T12:23:25;16.00;99.90
1405;DHT22;697;51.114;6.542;2024-02-16T12:25:51;16.00;99.90
1405;DHT22;697;51.114;6.542;2024-02-16T12:28:18;15.90;99.90
1405;DHT22;697;51.114;6.542;2024-02-16T12:30:46;15.90;99.90
1405;DHT22;697;51.114;6.542;2024-02-16T12:33:13;15.90;99.90
1405;DHT22;697;51.114;6.542;2024-02-16T12:35:40;15.90;99.90
1405;DHT22;697;51.114;6.542;2024-02-16T12:38:08;15.80;99.90
1405;DHT22;697;51.114;6.542;2024-02-16T12:40:35;15.80;99.90
1405;DHT22;697;51.114;6.542;2024-02-16T12:43:02;15.80;99.90
1405;DHT22;697;51.114;6.542;2024-02-16T12:45:29;15.80;99.90
1405;DHT22;697;51.114;6.542;2024-02-16T12:47:57;15.80;99.90
1405;DHT22;697;51.114;6.542;2024-02-16T12:50:24;15.80;99.90
1405;DHT22;697;51.114;6.542;2024-02-16T12:52:51;15.80;99.90
1405;DHT22;697;51.114;6.542;2024-02-16T12:55:19;15.70;99.90
1405;DHT22;697;51.114;6.542;2024-02-16T12:57:46;15.70;99.90
1405;DHT22;697;51.114;6.542;2024-02-16T13:00:14;15.70;99.90
1405;DHT22;697;51.114;6.542;2024-02-16T13:02:41;15.60;99.90
1405;DHT22;697;51.114;6.542;2024-02-16T13:05:08;15.60;99.90
1405;DHT22;697;51.114;6.542;2024-02-16T13:07:36;15.60;99.90
1405;DHT22;697;51.114;6.542;2024-02-16T13:10:05;15.50;99.90
1405;DHT22;697;51.114;6.542;2024-02-16T13:12:34;15.50;99.90
1405;DHT22;697;51.114;6.542;2024-02-16T13:15:02;15.50;99.90
1405;DHT22;697;51.114;6.542;2024-02-16T13:17:30;15.50;99.90
1405;DHT22;697;51.114;6.542;2024-02-16T13:19:58;15.50;99.90
1405;DHT22;697;51.114;6.542;2024-02-16T13:22:32;15.60;99.90
1405;DHT22;697;51.114;6.542;2024-02-16T13:24:59;15.50;99.90
1405;DHT22;697;51.114;6.542;2024-02-16T13:27:26;15.50;99.90
1405;DHT22;697;51.114;6.542;2024-02-16T13:29:54;15.40;99.90
1405;DHT22;697;51.114;6.542;2024-02-16T13:32:21;15.30;99.90
1405;DHT22;697;51.114;6.542;2024-02-16T13:34:48;15.40;99.90
1405;DHT22;697;51.114;6.542;2024-02-16T13:37:15;15.40;99.90
1405;DHT22;697;51.114;6.542;2024-02-16T13:39:41;15.40;99.90
1405;DHT22;697;51.114;6.542;2024-02-16T13:42:08;15.40;99.90
1405;DHT22;697;51.114;6.542;2024-02-16T13:44:36;15.40;99.90
1405;DHT22;697;51.114;6.542;2024-02-16T13:47:05;15.40;99.90
1405;DHT22;697;51.114;6.542;2024-02-16T13:49:31;15.40;99.90
1405;DHT22;697;51.114;6.542;2024-02-16T13:51:58;15.40;99.90
1405;DHT22;697;51.114;6.542;2024-02-16T13:54:25;15.40;99.90
1405;DHT22;697;51.114;6.542;2024-02-16T13:56:52;15.40;99.90
1405;DHT22;697;51.114;6.542;2024-02-16T13:59:19;15.30;99.90
1405;DHT22;697;51.114;6.542;2024-02-16T14:01:46;15.20;99.90
1405;DHT22;697;51.114;6.542;2024-02-16T14:04:15;15.10;99.90
1405;DHT22;697;51.114;6.542;2024-02-16T14:06:41;15.10;99.90
1405;DHT22;697;51.114;6.542;2024-02-16T14:09:08;15.10;99.90
1405;DHT22;697;51.114;6.542;2024-02-16T14:11:39;15.00;99.90
1405;DHT22;697;51.114;6.542;2024-02-16T14:14:07;15.10;99.90
1405;DHT22;697;51.114;6.542;2024-02-16T14:16:34;15.10;99.90
1405;DHT22;697;51.114;6.542;2024-02-16T14:19:01;15.20;99.90
1405;DHT22;697;51.114;6.542;2024-02-16T14:21:29;15.20;99.90
1405;DHT22;697;51.114;6.542;2024-02-16T14:23:56;15.30;99.90
1405;DHT22;697;51.114;6.542;2024-02-16T14:26:22;15.30;99.90
1405;DHT22;697;51.114;6.542;2024-02-16T14:28:49;15.30;99.90
1405;DHT22;697;51.114;6.542;2024-02-16T14:31:16;15.30;99.90
1405;DHT22;697;51.114;6.542;2024-02-16T14:33:46;15.20;99.90
1405;DHT22;697;51.114;6.542;2024-02-16T14:36:12;15.20;99.90
1405;DHT22;697;51.114;6.542;2024-02-16T14:38:41;15.10;99.90
1405;DHT22;697;51.114;6.542;2024-02-16T14:41:07;15.10;99.90
1405;DHT22;697;51.114;6.542;2024-02-16T14:43:35;15.10;99.90
1405;DHT22;697;51.114;6.542;2024-02-16T14:46:04;15.10;99.90
1405;DHT22;697;51.114;6.542;2024-02-16T14:48:30;15.00;99.90
1405;DHT22;697;51.114;6.542;2024-02-16T14:50:57;15.10;99.90
1405;DHT22;697;51.114;6.542;2024-02-16T14:53:24;15.10;99.90
1405;DHT22;697;51.114;6.542;2024-02-16T14:55:52;15.10;99.90
1405;DHT22;697;51.114;6.542;2024-02-16T14:58:19;15.00;99.90
1405;DHT22;697;51.114;6.542;2024-02-16T15:00:46;15.00;99.90
1405;DHT22;697;51.114;6.542;2024-02-16T15:03:15;15.00;99.90
1405;DHT22;697;51.114;6.542;2024-02-16T15:05:43;15.00;99.90
1405;DHT22;697;51.114;6.542;2024-02-16T15:08:10;15.00;99.90
1405;DHT22;697;51.114;6.542;2024-02-16T15:10:36;14.90;99.90
1405;DHT22;697;51.114;6.542;2024-02-16T15:13:05;14.90;99.90
1405;DHT22;697;51.114;6.542;2024-02-16T15:15:31;14.90;99.90
1405;DHT22;697;51.114;6.542;2024-02-16T15:17:58;14.80;99.90
1405;DHT22;697;51.114;6.542;2024-02-16T15:20:26;14.80;99.90
1405;DHT22;697;51.114;6.542;2024-02-16T15:22:53;14.80;99.90
1405;DHT22;697;51.114;6.542;2024-02-16T15:25:20;14.70;99.90
1405;DHT22;697;51.114;6.542;2024-02-16T15:27:47;14.70;99.90
1405;DHT22;697;51.114;6.542;2024-02-16T15:30:16;14.60;99.90
1405;DHT22;697;51.114;6.542;2024-02-16T15:32:43;14.60;99.90
1405;DHT22;697;51.114;6.542;2024-02-16T15:35:09;14.50;99.90
1405;DHT22;697;51.114;6.542;2024-02-16T15:37:36;14.50;99.90
1405;DHT22;697;51.114;6.542;2024-02-16T15:40:04;14.50;99.90
1405;DHT22;697;51.114;6.542;2024-02-16T15:42:31;14.50;99.90
1405;DHT22;697;51.114;6.542;2024-02-16T15:45:01;14.50;99.90
1405;DHT22;697;51.114;6.542;2024-02-16T15:47:31;14.60;99.90
1405;DHT22;697;51.114;6.542;2024-02-16T15:49:57;14.50;99.90
1405;DHT22;697;51.114;6.542;2024-02-16T15:52:24;14.60;99.90
1405;DHT22;697;51.114;6.542;2024-02-16T15:54:51;14.60;99.90
1405;DHT22;697;51.114;6.542;2024-02-16T15:57:18;14.60;99.90
1405;DHT22;697;51.114;6.542;2024-02-16T15:59:45;14.70;99.90
1405;DHT22;697;51.114;6.542;2024-02-16T16:02:12;14.70;99.90
1405;DHT22;697;51.114;6.542;2024-02-16T16:04:40;14.70;99.90
1405;DHT22;697;51.114;6.542;2024-02-16T16:07:07;14.60;99.90
1405;DHT22;697;51.114;6.542;2024-02-16T16:09:36;14.70;99.90
1405;DHT22;697;51.114;6.542;2024-02-16T16:12:03;14.60;99.90
1405;DHT22;697;51.114;6.542;2024-02-16T16:14:31;14.60;99.90
1405;DHT22;697;51.114;6.542;2024-02-16T16:16:58;14.60;99.90
1405;DHT22;697;51.114;6.542;2024-02-16T16:19:25;14.60;99.90